sensor_id;sensor_type;location;lat;lon;timestamp;pressure;altitude;pressure_sealevel;temperature;humidity
19827;BME280;10074;52.018;4.726;2022-11-04T00:02:27;46467.88;;;-144.79;100.00
19827;BME280;10074;52.018;4.726;2022-11-04T00:07:28;46467.88;;;-144.79;100.00
19827;BME280;10074;52.018;4.726;2022-11-04T00:12:46;46463.88;;;-144.79;100.00
19827;BME280;10074;52.018;4.726;2022-11-04T00:17:47;46471.91;;;-144.79;100.00
19827;BME280;10074;52.018;4.726;2022-11-04T00:22:47;46467.88;;;-144.79;100.00
19827;BME280;10074;52.018;4.726;2022-11-04T00:28:10;46467.88;;;-144.79;100.00
19827;BME280;10074;52.018;4.726;2022-11-04T00:33:29;46469.88;;;-144.79;100.00
19827;BME280;10074;52.018;4.726;2022-11-04T00:38:29;46469.88;;;-144.79;100.00
19827;BME280;10074;52.018;4.726;2022-11-04T00:43:29;46463.88;;;-144.79;100.00
19827;BME280;10074;52.018;4.726;2022-11-04T00:48:29;46467.88;;;-144.79;100.00
19827;BME280;10074;52.018;4.726;2022-11-04T00:53:30;46467.88;;;-144.79;100.00
19827;BME280;10074;52.018;4.726;2022-11-04T00:58:30;46467.88;;;-144.79;100.00
19827;BME280;10074;52.018;4.726;2022-11-04T01:03:30;46467.88;;;-144.79;100.00
19827;BME280;10074;52.018;4.726;2022-11-04T01:08:31;46467.88;;;-144.79;100.00
19827;BME280;10074;52.018;4.726;2022-11-04T01:13:32;46465.88;;;-144.79;100.00
19827;BME280;10074;52.018;4.726;2022-11-04T01:18:32;46471.91;;;-144.79;100.00
19827;BME280;10074;52.018;4.726;2022-11-04T01:23:33;46467.88;;;-144.79;100.00
19827;BME280;10074;52.018;4.726;2022-11-04T01:28:34;46467.88;;;-144.79;100.00
19827;BME280;10074;52.018;4.726;2022-11-04T01:33:35;46465.88;;;-144.79;100.00
19827;BME280;10074;52.018;4.726;2022-11-04T01:38:36;46467.88;;;-144.79;100.00
19827;BME280;10074;52.018;4.726;2022-11-04T01:44:01;46471.91;;;-144.79;100.00
19827;BME280;10074;52.018;4.726;2022-11-04T01:49:57;46465.88;;;-144.79;100.00
19827;BME280;10074;52.018;4.726;2022-11-04T01:54:31;46467.88;;;-144.79;100.00
19827;BME280;10074;52.018;4.726;2022-11-04T01:59:36;46463.88;;;-144.79;100.00
19827;BME280;10074;52.018;4.726;2022-11-04T02:04:38;46467.88;;;-144.79;100.00
19827;BME280;10074;52.018;4.726;2022-11-04T02:09:40;46469.88;;;-144.79;100.00
19827;BME280;10074;52.018;4.726;2022-11-04T02:14:41;46471.91;;;-144.79;100.00
19827;BME280;10074;52.018;4.726;2022-11-04T02:30:10;46467.88;;;-144.79;100.00
19827;BME280;10074;52.018;4.726;2022-11-04T02:35:53;46465.88;;;-144.79;100.00
19827;BME280;10074;52.018;4.726;2022-11-04T02:51:30;46469.88;;;-144.79;100.00
19827;BME280;10074;52.018;4.726;2022-11-04T02:56:35;46465.88;;;-144.79;100.00
19827;BME280;10074;52.018;4.726;2022-11-04T03:01:40;46467.88;;;-144.79;100.00
19827;BME280;10074;52.018;4.726;2022-11-04T03:06:43;46471.91;;;-144.79;100.00
19827;BME280;10074;52.018;4.726;2022-11-04T03:11:48;46467.88;;;-144.79;100.00
19827;BME280;10074;52.018;4.726;2022-11-04T03:17:00;46469.88;;;-144.79;100.00
19827;BME280;10074;52.018;4.726;2022-11-04T03:22:07;46469.88;;;-144.79;100.00
19827;BME280;10074;52.018;4.726;2022-11-04T03:27:32;46469.88;;;-144.79;100.00
19827;BME280;10074;52.018;4.726;2022-11-04T03:33:06;46469.88;;;-144.79;100.00
19827;BME280;10074;52.018;4.726;2022-11-04T03:38:12;46467.88;;;-144.79;100.00
19827;BME280;10074;52.018;4.726;2022-11-04T03:43:20;46473.91;;;-144.79;100.00
19827;BME280;10074;52.018;4.726;2022-11-04T03:48:22;46467.88;;;-144.79;100.00
19827;BME280;10074;52.018;4.726;2022-11-04T03:53:23;46469.88;;;-144.79;100.00
19827;BME280;10074;52.018;4.726;2022-11-04T04:04:16;46471.91;;;-144.79;100.00
19827;BME280;10074;52.018;4.726;2022-11-04T04:09:34;46467.88;;;-144.79;100.00
19827;BME280;10074;52.018;4.726;2022-11-04T04:14:41;46469.88;;;-144.79;100.00
19827;BME280;10074;52.018;4.726;2022-11-04T04:19:48;46467.88;;;-144.79;100.00
19827;BME280;10074;52.018;4.726;2022-11-04T04:24:52;46463.88;;;-144.79;100.00
19827;BME280;10074;52.018;4.726;2022-11-04T04:30:15;46467.88;;;-144.79;100.00
19827;BME280;10074;52.018;4.726;2022-11-04T04:35:16;46471.91;;;-144.79;100.00
19827;BME280;10074;52.018;4.726;2022-11-04T04:40:37;46465.88;;;-144.79;100.00
19827;BME280;10074;52.018;4.726;2022-11-04T04:46:03;46467.88;;;-144.79;100.00
19827;BME280;10074;52.018;4.726;2022-11-04T04:51:04;46465.88;;;-144.79;100.00
19827;BME280;10074;52.018;4.726;2022-11-04T04:56:04;46469.88;;;-144.79;100.00
19827;BME280;10074;52.018;4.726;2022-11-04T05:01:06;46475.91;;;-144.79;100.00
19827;BME280;10074;52.018;4.726;2022-11-04T05:06:08;46469.88;;;-144.79;100.00
19827;BME280;10074;52.018;4.726;2022-11-04T05:11:08;46467.88;;;-144.79;100.00
19827;BME280;10074;52.018;4.726;2022-11-04T05:16:10;46467.88;;;-144.79;100.00
19827;BME280;10074;52.018;4.726;2022-11-04T05:21:13;46469.88;;;-144.79;100.00
19827;BME280;10074;52.018;4.726;2022-11-04T05:26:13;46471.91;;;-144.79;100.00
19827;BME280;10074;52.018;4.726;2022-11-04T05:31:14;46467.88;;;-144.79;100.00
19827;BME280;10074;52.018;4.726;2022-11-04T05:36:15;46471.91;;;-144.79;100.00
19827;BME280;10074;52.018;4.726;2022-11-04T05:41:16;46469.88;;;-144.79;100.00
19827;BME280;10074;52.018;4.726;2022-11-04T05:46:25;46471.91;;;-144.79;100.00
19827;BME280;10074;52.018;4.726;2022-11-04T05:51:26;46463.88;;;-144.79;100.00
19827;BME280;10074;52.018;4.726;2022-11-04T05:56:27;46467.88;;;-144.79;100.00
19827;BME280;10074;52.018;4.726;2022-11-04T06:01:31;46467.88;;;-144.79;100.00
19827;BME280;10074;52.018;4.726;2022-11-04T06:06:34;46465.88;;;-144.79;100.00
19827;BME280;10074;52.018;4.726;2022-11-04T06:11:36;46469.88;;;-144.79;100.00
19827;BME280;10074;52.018;4.726;2022-11-04T06:16:37;46471.91;;;-144.79;100.00
19827;BME280;10074;52.018;4.726;2022-11-04T06:21:37;46465.88;;;-144.79;100.00
19827;BME280;10074;52.018;4.726;2022-11-04T06:26:37;46463.88;;;-144.79;100.00
19827;BME280;10074;52.018;4.726;2022-11-04T06:31:38;46465.88;;;-144.79;100.00
19827;BME280;10074;52.018;4.726;2022-11-04T06:36:38;46465.88;;;-144.79;100.00
19827;BME280;10074;52.018;4.726;2022-11-04T06:41:39;46471.91;;;-144.79;100.00
19827;BME280;10074;52.018;4.726;2022-11-04T06:46:41;46467.88;;;-144.79;100.00
19827;BME280;10074;52.018;4.726;2022-11-04T06:51:42;46465.88;;;-144.79;100.00
19827;BME280;10074;52.018;4.726;2022-11-04T06:56:43;46473.91;;;-144.79;100.00
19827;BME280;10074;52.018;4.726;2022-11-04T07:01:44;46469.88;;;-144.79;100.00
19827;BME280;10074;52.018;4.726;2022-11-04T07:06:45;46467.88;;;-144.79;100.00
19827;BME280;10074;52.018;4.726;2022-11-04T07:11:46;46469.88;;;-144.79;100.00
19827;BME280;10074;52.018;4.726;2022-11-04T07:16:49;46465.88;;;-144.79;100.00
19827;BME280;10074;52.018;4.726;2022-11-04T07:21:50;46467.88;;;-144.79;100.00
19827;BME280;10074;52.018;4.726;2022-11-04T07:26:53;46463.88;;;-144.79;100.00
19827;BME280;10074;52.018;4.726;2022-11-04T07:31:54;46467.88;;;-144.79;100.00
19827;BME280;10074;52.018;4.726;2022-11-04T07:36:54;46467.88;;;-144.79;100.00
19827;BME280;10074;52.018;4.726;2022-11-04T07:41:54;46469.88;;;-144.79;100.00
19827;BME280;10074;52.018;4.726;2022-11-04T07:46:55;46471.91;;;-144.79;100.00
19827;BME280;10074;52.018;4.726;2022-11-04T07:51:56;46471.91;;;-144.79;100.00
19827;BME280;10074;52.018;4.726;2022-11-04T07:56:56;46469.88;;;-144.79;100.00
19827;BME280;10074;52.018;4.726;2022-11-04T08:01:57;46471.91;;;-144.79;100.00
19827;BME280;10074;52.018;4.726;2022-11-04T08:06:57;46469.88;;;-144.79;100.00
19827;BME280;10074;52.018;4.726;2022-11-04T08:11:57;46469.88;;;-144.79;100.00
19827;BME280;10074;52.018;4.726;2022-11-04T08:16:58;46473.91;;;-144.79;100.00
19827;BME280;10074;52.018;4.726;2022-11-04T08:21:59;46475.91;;;-144.79;100.00
19827;BME280;10074;52.018;4.726;2022-11-04T08:27:00;46471.91;;;-144.79;100.00
19827;BME280;10074;52.018;4.726;2022-11-04T08:32:00;46471.91;;;-144.79;100.00
19827;BME280;10074;52.018;4.726;2022-11-04T08:37:00;46473.91;;;-144.79;100.00
19827;BME280;10074;52.018;4.726;2022-11-04T08:42:00;46471.91;;;-144.79;100.00
19827;BME280;10074;52.018;4.726;2022-11-04T08:47:02;46471.91;;;-144.79;100.00
19827;BME280;10074;52.018;4.726;2022-11-04T08:52:02;46471.91;;;-144.79;100.00
19827;BME280;10074;52.018;4.726;2022-11-04T08:57:03;46471.91;;;-144.79;100.00
19827;BME280;10074;52.018;4.726;2022-11-04T09:02:03;46473.91;;;-144.79;100.00
19827;BME280;10074;52.018;4.726;2022-11-04T09:07:04;46473.91;;;-144.79;100.00
19827;BME280;10074;52.018;4.726;2022-11-04T09:12:08;46473.91;;;-144.79;100.00
19827;BME280;10074;52.018;4.726;2022-11-04T09:17:09;46471.91;;;-144.79;100.00
19827;BME280;10074;52.018;4.726;2022-11-04T09:22:09;46475.91;;;-144.79;100.00
19827;BME280;10074;52.018;4.726;2022-11-04T09:27:10;46479.91;;;-144.79;100.00
19827;BME280;10074;52.018;4.726;2022-11-04T09:32:10;46473.91;;;-144.79;100.00
19827;BME280;10074;52.018;4.726;2022-11-04T09:37:10;46475.91;;;-144.79;100.00
19827;BME280;10074;52.018;4.726;2022-11-04T09:42:27;46481.91;;;-144.79;100.00
19827;BME280;10074;52.018;4.726;2022-11-04T09:47:32;46479.91;;;-144.79;100.00
19827;BME280;10074;52.018;4.726;2022-11-04T09:52:40;46477.91;;;-144.79;100.00
19827;BME280;10074;52.018;4.726;2022-11-04T09:57:44;46473.91;;;-144.79;100.00
19827;BME280;10074;52.018;4.726;2022-11-04T10:02:53;46475.91;;;-144.79;100.00
19827;BME280;10074;52.018;4.726;2022-11-04T10:24:23;46473.91;;;-144.79;100.00
19827;BME280;10074;52.018;4.726;2022-11-04T10:29:31;46475.91;;;-144.79;100.00
19827;BME280;10074;52.018;4.726;2022-11-04T10:34:39;46477.91;;;-144.79;100.00
19827;BME280;10074;52.018;4.726;2022-11-04T10:39:44;46467.88;;;-144.79;100.00
19827;BME280;10074;52.018;4.726;2022-11-04T10:44:45;46473.91;;;-144.79;100.00
19827;BME280;10074;52.018;4.726;2022-11-04T10:49:56;46473.91;;;-144.79;100.00
19827;BME280;10074;52.018;4.726;2022-11-04T10:55:00;46473.91;;;-144.79;100.00
19827;BME280;10074;52.018;4.726;2022-11-04T11:00:03;46475.91;;;-144.79;100.00
19827;BME280;10074;52.018;4.726;2022-11-04T11:10:20;46475.91;;;-144.79;100.00
19827;BME280;10074;52.018;4.726;2022-11-04T11:15:29;46471.91;;;-144.79;100.00
19827;BME280;10074;52.018;4.726;2022-11-04T11:20:29;46477.91;;;-144.79;100.00
19827;BME280;10074;52.018;4.726;2022-11-04T11:25:33;46475.91;;;-144.79;100.00
19827;BME280;10074;52.018;4.726;2022-11-04T11:30:54;46475.91;;;-144.79;100.00
19827;BME280;10074;52.018;4.726;2022-11-04T11:36:02;46473.91;;;-144.79;100.00
19827;BME280;10074;52.018;4.726;2022-11-04T11:41:06;46479.91;;;-144.79;100.00
19827;BME280;10074;52.018;4.726;2022-11-04T11:46:09;46471.91;;;-144.79;100.00
19827;BME280;10074;52.018;4.726;2022-11-04T11:51:13;46475.91;;;-144.79;100.00
19827;BME280;10074;52.018;4.726;2022-11-04T11:56:24;46475.91;;;-144.79;100.00
19827;BME280;10074;52.018;4.726;2022-11-04T12:01:35;46475.91;;;-144.79;100.00
19827;BME280;10074;52.018;4.726;2022-11-04T12:12:39;46471.91;;;-144.79;100.00
19827;BME280;10074;52.018;4.726;2022-11-04T12:28:12;46475.91;;;-144.79;100.00
19827;BME280;10074;52.018;4.726;2022-11-04T12:44:15;46475.91;;;-144.79;100.00
19827;BME280;10074;52.018;4.726;2022-11-04T13:00:06;46473.91;;;-144.79;100.00
19827;BME280;10074;52.018;4.726;2022-11-04T13:16:21;46479.91;;;-144.79;100.00
19827;BME280;10074;52.018;4.726;2022-11-04T13:21:24;46479.91;;;-144.79;100.00
19827;BME280;10074;52.018;4.726;2022-11-04T13:26:26;46473.91;;;-144.79;100.00
19827;BME280;10074;52.018;4.726;2022-11-04T13:31:35;46475.91;;;-144.79;100.00
19827;BME280;10074;52.018;4.726;2022-11-04T13:36:45;46475.91;;;-144.79;100.00
19827;BME280;10074;52.018;4.726;2022-11-04T13:42:19;46485.94;;;-144.79;100.00
19827;BME280;10074;52.018;4.726;2022-11-04T13:47:33;46483.94;;;-144.79;100.00
19827;BME280;10074;52.018;4.726;2022-11-04T13:52:46;46479.91;;;-144.79;100.00
19827;BME280;10074;52.018;4.726;2022-11-04T13:57:57;46481.91;;;-144.79;100.00
19827;BME280;10074;52.018;4.726;2022-11-04T14:02:59;46475.91;;;-144.79;100.00
19827;BME280;10074;52.018;4.726;2022-11-04T14:18:41;46479.91;;;-144.79;100.00
19827;BME280;10074;52.018;4.726;2022-11-04T14:23:45;46477.91;;;-144.79;100.00
19827;BME280;10074;52.018;4.726;2022-11-04T14:29:00;46475.91;;;-144.79;100.00
19827;BME280;10074;52.018;4.726;2022-11-04T14:34:02;46475.91;;;-144.79;100.00
19827;BME280;10074;52.018;4.726;2022-11-04T14:54:31;46475.91;;;-144.79;100.00
19827;BME280;10074;52.018;4.726;2022-11-04T14:59:33;46471.91;;;-144.79;100.00
19827;BME280;10074;52.018;4.726;2022-11-04T15:04:33;46475.91;;;-144.79;100.00
19827;BME280;10074;52.018;4.726;2022-11-04T15:09:39;46473.91;;;-144.79;100.00
19827;BME280;10074;52.018;4.726;2022-11-04T15:14:39;46477.91;;;-144.79;100.00
19827;BME280;10074;52.018;4.726;2022-11-04T15:19:40;46475.91;;;-144.79;100.00
19827;BME280;10074;52.018;4.726;2022-11-04T15:24:42;46473.91;;;-144.79;100.00
19827;BME280;10074;52.018;4.726;2022-11-04T15:29:57;46471.91;;;-144.79;100.00
19827;BME280;10074;52.018;4.726;2022-11-04T15:34:58;46473.91;;;-144.79;100.00
19827;BME280;10074;52.018;4.726;2022-11-04T15:39:59;46477.91;;;-144.79;100.00
19827;BME280;10074;52.018;4.726;2022-11-04T15:50:23;46473.91;;;-144.79;100.00
19827;BME280;10074;52.018;4.726;2022-11-04T15:55:25;46473.91;;;-144.79;100.00
19827;BME280;10074;52.018;4.726;2022-11-04T16:00:26;46473.91;;;-144.79;100.00
19827;BME280;10074;52.018;4.726;2022-11-04T16:05:30;46475.91;;;-144.79;100.00
19827;BME280;10074;52.018;4.726;2022-11-04T16:10:34;46469.88;;;-144.79;100.00
19827;BME280;10074;52.018;4.726;2022-11-04T16:15:38;46473.91;;;-144.79;100.00
19827;BME280;10074;52.018;4.726;2022-11-04T16:20:44;46471.91;;;-144.79;100.00
19827;BME280;10074;52.018;4.726;2022-11-04T16:25:45;46475.91;;;-144.79;100.00
19827;BME280;10074;52.018;4.726;2022-11-04T16:30:59;46471.91;;;-144.79;100.00
19827;BME280;10074;52.018;4.726;2022-11-04T16:36:00;46475.91;;;-144.79;100.00
19827;BME280;10074;52.018;4.726;2022-11-04T16:41:04;46469.88;;;-144.79;100.00
19827;BME280;10074;52.018;4.726;2022-11-04T16:46:05;46471.91;;;-144.79;100.00
19827;BME280;10074;52.018;4.726;2022-11-04T16:51:05;46469.88;;;-144.79;100.00
19827;BME280;10074;52.018;4.726;2022-11-04T16:56:06;46475.91;;;-144.79;100.00
19827;BME280;10074;52.018;4.726;2022-11-04T17:01:09;46473.91;;;-144.79;100.00
19827;BME280;10074;52.018;4.726;2022-11-04T17:06:13;46475.91;;;-144.79;100.00
19827;BME280;10074;52.018;4.726;2022-11-04T17:11:13;46471.91;;;-144.79;100.00
19827;BME280;10074;52.018;4.726;2022-11-04T17:16:14;46475.91;;;-144.79;100.00
19827;BME280;10074;52.018;4.726;2022-11-04T17:21:15;46475.91;;;-144.79;100.00
19827;BME280;10074;52.018;4.726;2022-11-04T17:26:18;46471.91;;;-144.79;100.00
19827;BME280;10074;52.018;4.726;2022-11-04T17:31:18;46469.88;;;-144.79;100.00
19827;BME280;10074;52.018;4.726;2022-11-04T17:36:19;46471.91;;;-144.79;100.00
19827;BME280;10074;52.018;4.726;2022-11-04T17:41:19;46471.91;;;-144.79;100.00
19827;BME280;10074;52.018;4.726;2022-11-04T17:46:38;46473.91;;;-144.79;100.00
19827;BME280;10074;52.018;4.726;2022-11-04T17:51:44;46475.91;;;-144.79;100.00
19827;BME280;10074;52.018;4.726;2022-11-04T17:56:45;46473.91;;;-144.79;100.00
19827;BME280;10074;52.018;4.726;2022-11-04T18:01:46;46477.91;;;-144.79;100.00
19827;BME280;10074;52.018;4.726;2022-11-04T18:06:48;46477.91;;;-144.79;100.00
19827;BME280;10074;52.018;4.726;2022-11-04T18:11:48;46471.91;;;-144.79;100.00
19827;BME280;10074;52.018;4.726;2022-11-04T18:17:07;46479.91;;;-144.79;100.00
19827;BME280;10074;52.018;4.726;2022-11-04T18:22:07;46471.91;;;-144.79;100.00
19827;BME280;10074;52.018;4.726;2022-11-04T18:27:07;46477.91;;;-144.79;100.00
19827;BME280;10074;52.018;4.726;2022-11-04T18:32:08;46473.91;;;-144.79;100.00
19827;BME280;10074;52.018;4.726;2022-11-04T18:37:08;46471.91;;;-144.79;100.00
19827;BME280;10074;52.018;4.726;2022-11-04T18:42:09;46471.91;;;-144.79;100.00
19827;BME280;10074;52.018;4.726;2022-11-04T18:47:09;46471.91;;;-144.79;100.00
19827;BME280;10074;52.018;4.726;2022-11-04T18:52:10;46471.91;;;-144.79;100.00
19827;BME280;10074;52.018;4.726;2022-11-04T18:57:10;46475.91;;;-144.79;100.00
19827;BME280;10074;52.018;4.726;2022-11-04T19:02:18;46471.91;;;-144.79;100.00
19827;BME280;10074;52.018;4.726;2022-11-04T19:07:19;46471.91;;;-144.79;100.00
19827;BME280;10074;52.018;4.726;2022-11-04T19:12:19;46477.91;;;-144.79;100.00
19827;BME280;10074;52.018;4.726;2022-11-04T19:17:38;46473.91;;;-144.79;100.00
19827;BME280;10074;52.018;4.726;2022-11-04T19:22:39;46471.91;;;-144.79;100.00
19827;BME280;10074;52.018;4.726;2022-11-04T19:27:40;46475.91;;;-144.79;100.00
19827;BME280;10074;52.018;4.726;2022-11-04T19:32:40;46479.91;;;-144.79;100.00
19827;BME280;10074;52.018;4.726;2022-11-04T19:37:40;46473.91;;;-144.79;100.00
19827;BME280;10074;52.018;4.726;2022-11-04T19:42:40;46473.91;;;-144.79;100.00
19827;BME280;10074;52.018;4.726;2022-11-04T19:47:59;46471.91;;;-144.79;100.00
19827;BME280;10074;52.018;4.726;2022-11-04T19:52:59;46475.91;;;-144.79;100.00
19827;BME280;10074;52.018;4.726;2022-11-04T19:58:00;46473.91;;;-144.79;100.00
19827;BME280;10074;52.018;4.726;2022-11-04T20:03:01;46473.91;;;-144.79;100.00
19827;BME280;10074;52.018;4.726;2022-11-04T20:08:01;46473.91;;;-144.79;100.00
19827;BME280;10074;52.018;4.726;2022-11-04T20:13:01;46471.91;;;-144.79;100.00
19827;BME280;10074;52.018;4.726;2022-11-04T20:18:20;46475.91;;;-144.79;100.00
19827;BME280;10074;52.018;4.726;2022-11-04T20:23:21;46473.91;;;-144.79;100.00
19827;BME280;10074;52.018;4.726;2022-11-04T20:28:21;46471.91;;;-144.79;100.00
19827;BME280;10074;52.018;4.726;2022-11-04T20:33:21;46473.91;;;-144.79;100.00
19827;BME280;10074;52.018;4.726;2022-11-04T20:38:21;46473.91;;;-144.79;100.00
19827;BME280;10074;52.018;4.726;2022-11-04T20:43:22;46471.91;;;-144.79;100.00
19827;BME280;10074;52.018;4.726;2022-11-04T20:48:23;46475.91;;;-144.79;100.00
19827;BME280;10074;52.018;4.726;2022-11-04T20:53:23;46473.91;;;-144.79;100.00
19827;BME280;10074;52.018;4.726;2022-11-04T20:58:23;46475.91;;;-144.79;100.00
19827;BME280;10074;52.018;4.726;2022-11-04T21:03:23;46469.88;;;-144.79;100.00
19827;BME280;10074;52.018;4.726;2022-11-04T21:08:24;46469.88;;;-144.79;100.00
19827;BME280;10074;52.018;4.726;2022-11-04T21:13:24;46473.91;;;-144.79;100.00
19827;BME280;10074;52.018;4.726;2022-11-04T21:18:26;46471.91;;;-144.79;100.00
19827;BME280;10074;52.018;4.726;2022-11-04T21:23:27;46471.91;;;-144.79;100.00
19827;BME280;10074;52.018;4.726;2022-11-04T21:28:27;46469.88;;;-144.79;100.00
19827;BME280;10074;52.018;4.726;2022-11-04T21:33:28;46471.91;;;-144.79;100.00
19827;BME280;10074;52.018;4.726;2022-11-04T21:38:28;46475.91;;;-144.79;100.00
19827;BME280;10074;52.018;4.726;2022-11-04T21:43:29;46475.91;;;-144.79;100.00
19827;BME280;10074;52.018;4.726;2022-11-04T21:48:33;46469.88;;;-144.79;100.00
19827;BME280;10074;52.018;4.726;2022-11-04T21:53:34;46473.91;;;-144.79;100.00
19827;BME280;10074;52.018;4.726;2022-11-04T21:58:35;46477.91;;;-144.79;100.00
19827;BME280;10074;52.018;4.726;2022-11-04T22:03:36;46475.91;;;-144.79;100.00
19827;BME280;10074;52.018;4.726;2022-11-04T22:08:36;46475.91;;;-144.79;100.00
19827;BME280;10074;52.018;4.726;2022-11-04T22:13:37;46473.91;;;-144.79;100.00
19827;BME280;10074;52.018;4.726;2022-11-04T22:18:37;46477.91;;;-144.79;100.00
19827;BME280;10074;52.018;4.726;2022-11-04T22:23:38;46475.91;;;-144.79;100.00
19827;BME280;10074;52.018;4.726;2022-11-04T22:28:38;46475.91;;;-144.79;100.00
19827;BME280;10074;52.018;4.726;2022-11-04T22:33:38;46473.91;;;-144.79;100.00
19827;BME280;10074;52.018;4.726;2022-11-04T22:38:40;46473.91;;;-144.79;100.00
19827;BME280;10074;52.018;4.726;2022-11-04T22:43:41;46469.88;;;-144.79;100.00
19827;BME280;10074;52.018;4.726;2022-11-04T22:48:41;46469.88;;;-144.79;100.00
19827;BME280;10074;52.018;4.726;2022-11-04T22:53:42;46471.91;;;-144.79;100.00
19827;BME280;10074;52.018;4.726;2022-11-04T22:58:42;46473.91;;;-144.79;100.00
19827;BME280;10074;52.018;4.726;2022-11-04T23:03:43;46475.91;;;-144.79;100.00
19827;BME280;10074;52.018;4.726;2022-11-04T23:08:43;46473.91;;;-144.79;100.00
19827;BME280;10074;52.018;4.726;2022-11-04T23:13:53;46471.91;;;-144.79;100.00
19827;BME280;10074;52.018;4.726;2022-11-04T23:19:12;46467.88;;;-144.79;100.00
19827;BME280;10074;52.018;4.726;2022-11-04T23:24:13;46471.91;;;-144.79;100.00
19827;BME280;10074;52.018;4.726;2022-11-04T23:29:32;46467.88;;;-144.79;100.00
19827;BME280;10074;52.018;4.726;2022-11-04T23:34:51;46471.91;;;-144.79;100.00
19827;BME280;10074;52.018;4.726;2022-11-04T23:40:10;46471.91;;;-144.79;100.00
19827;BME280;10074;52.018;4.726;2022-11-04T23:45:10;46471.91;;;-144.79;100.00
19827;BME280;10074;52.018;4.726;2022-11-04T23:50:32;46471.91;;;-144.79;100.00
19827;BME280;10074;52.018;4.726;2022-11-04T23:55:51;46473.91;;;-144.79;100.00
